sensor_id;sensor_type;location;lat;lon;timestamp;pressure;altitude;pressure_sealevel;temperature;humidity
21863;BME280;11096;51.338;12.524;2023-11-21T00:00:51;99456.66;;;10.47;74.80
21863;BME280;11096;51.338;12.524;2023-11-21T00:03:16;99450.03;;;10.43;73.98
21863;BME280;11096;51.338;12.524;2023-11-21T00:05:41;99453.22;;;10.47;73.53
21863;BME280;11096;51.338;12.524;2023-11-21T00:08:08;99458.28;;;10.60;73.53
21863;BME280;11096;51.338;12.524;2023-11-21T00:10:34;99450.53;;;10.48;73.21
21863;BME280;11096;51.338;12.524;2023-11-21T00:13:00;99453.13;;;10.37;72.87
21863;BME280;11096;51.338;12.524;2023-11-21T00:15:27;99460.56;;;10.30;73.31
21863;BME280;11096;51.338;12.524;2023-11-21T00:17:52;99457.38;;;10.27;72.90
21863;BME280;11096;51.338;12.524;2023-11-21T00:20:17;99459.25;;;10.25;73.35
21863;BME280;11096;51.338;12.524;2023-11-21T00:22:43;99464.56;;;10.23;74.29
21863;BME280;11096;51.338;12.524;2023-11-21T00:25:08;99469.91;;;10.33;74.72
21863;BME280;11096;51.338;12.524;2023-11-21T00:27:35;99468.22;;;10.43;75.03
21863;BME280;11096;51.338;12.524;2023-11-21T00:30:01;99467.66;;;10.40;75.10
21863;BME280;11096;51.338;12.524;2023-11-21T00:32:26;99470.59;;;10.35;74.67
21863;BME280;11096;51.338;12.524;2023-11-21T00:34:51;99471.53;;;10.23;74.59
21863;BME280;11096;51.338;12.524;2023-11-21T00:37:17;99478.41;;;10.24;74.77
21863;BME280;11096;51.338;12.524;2023-11-21T00:39:42;99480.84;;;10.25;74.30
21863;BME280;11096;51.338;12.524;2023-11-21T00:42:08;99478.03;;;10.17;73.78
21863;BME280;11096;51.338;12.524;2023-11-21T00:44:37;99479.44;;;10.21;74.35
21863;BME280;11096;51.338;12.524;2023-11-21T00:47:03;99482.41;;;10.05;74.34
21863;BME280;11096;51.338;12.524;2023-11-21T00:49:28;99480.28;;;9.88;74.45
21863;BME280;11096;51.338;12.524;2023-11-21T00:51:54;99479.44;;;9.99;74.40
21863;BME280;11096;51.338;12.524;2023-11-21T00:54:19;99479.81;;;9.94;74.69
21863;BME280;11096;51.338;12.524;2023-11-21T00:56:44;99487.81;;;9.91;75.26
21863;BME280;11096;51.338;12.524;2023-11-21T00:59:12;99485.94;;;9.93;75.22
21863;BME280;11096;51.338;12.524;2023-11-21T01:01:38;99492.56;;;9.97;75.82
21863;BME280;11096;51.338;12.524;2023-11-21T01:04:03;99493.63;;;9.95;75.93
21863;BME280;11096;51.338;12.524;2023-11-21T01:06:29;99496.91;;;9.97;75.85
21863;BME280;11096;51.338;12.524;2023-11-21T01:08:55;99494.44;;;9.95;75.54
21863;BME280;11096;51.338;12.524;2023-11-21T01:11:20;99500.59;;;10.05;75.84
21863;BME280;11096;51.338;12.524;2023-11-21T01:13:46;99493.97;;;10.01;75.42
21863;BME280;11096;51.338;12.524;2023-11-21T01:16:11;99488.19;;;10.20;75.06
21863;BME280;11096;51.338;12.524;2023-11-21T01:18:37;99496.34;;;9.93;74.87
21863;BME280;11096;51.338;12.524;2023-11-21T01:21:03;99499.63;;;10.18;75.02
21863;BME280;11096;51.338;12.524;2023-11-21T01:23:28;99500.81;;;10.14;74.96
21863;BME280;11096;51.338;12.524;2023-11-21T01:25:56;99499.63;;;10.18;75.04
21863;BME280;11096;51.338;12.524;2023-11-21T01:28:21;99503.66;;;10.22;75.12
21863;BME280;11096;51.338;12.524;2023-11-21T01:30:48;99506.72;;;10.16;75.07
21863;BME280;11096;51.338;12.524;2023-11-21T01:33:13;99512.16;;;10.13;75.52
21863;BME280;11096;51.338;12.524;2023-11-21T01:35:40;99508.50;;;10.26;74.72
21863;BME280;11096;51.338;12.524;2023-11-21T01:38:06;99506.63;;;10.40;74.76
21863;BME280;11096;51.338;12.524;2023-11-21T01:40:34;99504.13;;;10.49;74.49
21863;BME280;11096;51.338;12.524;2023-11-21T01:43:00;99510.03;;;10.51;74.23
21863;BME280;11096;51.338;12.524;2023-11-21T01:45:25;99505.53;;;10.53;74.30
21863;BME280;11096;51.338;12.524;2023-11-21T01:47:51;99508.81;;;10.56;73.95
21863;BME280;11096;51.338;12.524;2023-11-21T01:50:17;99509.25;;;10.72;74.32
21863;BME280;11096;51.338;12.524;2023-11-21T01:52:45;99512.94;;;10.58;73.22
21863;BME280;11096;51.338;12.524;2023-11-21T01:55:11;99520.38;;;10.63;73.38
21863;BME280;11096;51.338;12.524;2023-11-21T01:57:37;99517.53;;;10.77;73.62
21863;BME280;11096;51.338;12.524;2023-11-21T02:00:04;99519.66;;;10.72;73.44
21863;BME280;11096;51.338;12.524;2023-11-21T02:02:44;99523.63;;;10.87;73.29
21863;BME280;11096;51.338;12.524;2023-11-21T02:05:19;99525.66;;;10.84;73.37
21863;BME280;11096;51.338;12.524;2023-11-21T02:07:47;99529.34;;;10.81;73.24
21863;BME280;11096;51.338;12.524;2023-11-21T02:10:18;99531.22;;;10.79;73.65
21863;BME280;11096;51.338;12.524;2023-11-21T02:12:48;99535.91;;;10.85;73.22
21863;BME280;11096;51.338;12.524;2023-11-21T02:15:16;99537.00;;;10.83;73.39
21863;BME280;11096;51.338;12.524;2023-11-21T02:17:49;99535.84;;;10.76;73.74
21863;BME280;11096;51.338;12.524;2023-11-21T02:20:17;99534.53;;;10.81;73.70
21863;BME280;11096;51.338;12.524;2023-11-21T02:22:44;99528.97;;;10.86;74.03
21863;BME280;11096;51.338;12.524;2023-11-21T02:25:10;99529.16;;;10.94;72.87
21863;BME280;11096;51.338;12.524;2023-11-21T02:27:36;99533.09;;;10.88;73.17
21863;BME280;11096;51.338;12.524;2023-11-21T02:30:03;99531.84;;;11.04;72.60
21863;BME280;11096;51.338;12.524;2023-11-21T02:32:29;99534.44;;;11.15;73.07
21863;BME280;11096;51.338;12.524;2023-11-21T02:34:57;99538.09;;;11.12;72.25
21863;BME280;11096;51.338;12.524;2023-11-21T02:37:26;99539.59;;;10.83;72.54
21863;BME280;11096;51.338;12.524;2023-11-21T02:39:51;99532.13;;;11.01;72.43
21863;BME280;11096;51.338;12.524;2023-11-21T02:42:18;99534.56;;;11.02;72.49
21863;BME280;11096;51.338;12.524;2023-11-21T02:44:43;99531.22;;;11.11;72.14
21863;BME280;11096;51.338;12.524;2023-11-21T02:47:09;99529.91;;;11.17;72.31
21863;BME280;11096;51.338;12.524;2023-11-21T02:49:34;99530.84;;;11.27;72.23
21863;BME280;11096;51.338;12.524;2023-11-21T02:52:01;99533.44;;;11.27;71.59
21863;BME280;11096;51.338;12.524;2023-11-21T02:54:26;99526.56;;;11.26;71.70
21863;BME280;11096;51.338;12.524;2023-11-21T02:56:52;99528.69;;;11.32;71.22
21863;BME280;11096;51.338;12.524;2023-11-21T02:59:18;99528.09;;;11.29;71.56
21863;BME280;11096;51.338;12.524;2023-11-21T03:01:44;99529.88;;;11.28;72.12
21863;BME280;11096;51.338;12.524;2023-11-21T03:04:10;99531.50;;;11.29;71.25
21863;BME280;11096;51.338;12.524;2023-11-21T03:06:36;99520.50;;;11.05;71.41
21863;BME280;11096;51.338;12.524;2023-11-21T03:09:01;99528.81;;;10.87;71.94
21863;BME280;11096;51.338;12.524;2023-11-21T03:11:27;99531.69;;;10.73;72.61
21863;BME280;11096;51.338;12.524;2023-11-21T03:13:52;99528.41;;;10.71;72.52
21863;BME280;11096;51.338;12.524;2023-11-21T03:16:18;99532.19;;;10.67;73.16
21863;BME280;11096;51.338;12.524;2023-11-21T03:18:44;99532.09;;;10.57;73.38
21863;BME280;11096;51.338;12.524;2023-11-21T03:21:09;99524.31;;;10.46;73.37
21863;BME280;11096;51.338;12.524;2023-11-21T03:23:36;99526.69;;;10.49;73.54
21863;BME280;11096;51.338;12.524;2023-11-21T03:26:01;99533.41;;;10.40;73.30
21863;BME280;11096;51.338;12.524;2023-11-21T03:28:27;99532.00;;;10.36;73.17
21863;BME280;11096;51.338;12.524;2023-11-21T03:30:53;99536.56;;;10.21;73.40
21863;BME280;11096;51.338;12.524;2023-11-21T03:33:19;99536.22;;;10.26;73.37
21863;BME280;11096;51.338;12.524;2023-11-21T03:35:44;99529.38;;;10.25;73.21
21863;BME280;11096;51.338;12.524;2023-11-21T03:38:10;99541.22;;;10.29;73.46
21863;BME280;11096;51.338;12.524;2023-11-21T03:40:36;99542.75;;;10.31;73.23
21863;BME280;11096;51.338;12.524;2023-11-21T03:43:01;99544.84;;;10.26;73.72
21863;BME280;11096;51.338;12.524;2023-11-21T03:45:27;99548.06;;;10.30;73.64
21863;BME280;11096;51.338;12.524;2023-11-21T03:47:52;99548.28;;;10.38;73.63
21863;BME280;11096;51.338;12.524;2023-11-21T03:50:17;99552.84;;;10.80;73.52
21863;BME280;11096;51.338;12.524;2023-11-21T03:52:43;99554.00;;;10.87;71.96
21863;BME280;11096;51.338;12.524;2023-11-21T03:55:09;99559.09;;;10.88;72.22
21863;BME280;11096;51.338;12.524;2023-11-21T03:57:35;99554.16;;;10.63;71.99
21863;BME280;11096;51.338;12.524;2023-11-21T04:00:01;99555.94;;;10.62;73.58
21863;BME280;11096;51.338;12.524;2023-11-21T04:02:29;99560.66;;;10.46;73.74
21863;BME280;11096;51.338;12.524;2023-11-21T04:04:54;99564.34;;;10.32;74.38
21863;BME280;11096;51.338;12.524;2023-11-21T04:07:20;99561.47;;;10.13;75.49
21863;BME280;11096;51.338;12.524;2023-11-21T04:09:47;99566.09;;;10.20;76.05
21863;BME280;11096;51.338;12.524;2023-11-21T04:12:12;99565.25;;;10.20;76.00
21863;BME280;11096;51.338;12.524;2023-11-21T04:14:37;99576.31;;;9.88;76.63
21863;BME280;11096;51.338;12.524;2023-11-21T04:17:03;99572.19;;;9.85;77.32
21863;BME280;11096;51.338;12.524;2023-11-21T04:19:29;99576.53;;;9.85;78.35
21863;BME280;11096;51.338;12.524;2023-11-21T04:21:54;99579.38;;;9.93;78.03
21863;BME280;11096;51.338;12.524;2023-11-21T04:24:20;99572.56;;;9.92;77.63
21863;BME280;11096;51.338;12.524;2023-11-21T04:26:45;99575.25;;;9.91;78.10
21863;BME280;11096;51.338;12.524;2023-11-21T04:29:12;99572.91;;;10.21;77.19
21863;BME280;11096;51.338;12.524;2023-11-21T04:31:37;99571.66;;;10.38;76.29
21863;BME280;11096;51.338;12.524;2023-11-21T04:34:03;99581.00;;;10.29;76.12
21863;BME280;11096;51.338;12.524;2023-11-21T04:36:29;99580.41;;;10.37;76.00
21863;BME280;11096;51.338;12.524;2023-11-21T04:38:56;99586.19;;;10.41;75.41
21863;BME280;11096;51.338;12.524;2023-11-21T04:41:21;99591.72;;;10.47;75.22
21863;BME280;11096;51.338;12.524;2023-11-21T04:43:46;99589.97;;;10.37;75.35
21863;BME280;11096;51.338;12.524;2023-11-21T04:46:12;99588.19;;;10.37;75.68
21863;BME280;11096;51.338;12.524;2023-11-21T04:48:38;99599.50;;;10.25;75.81
21863;BME280;11096;51.338;12.524;2023-11-21T04:51:03;99594.09;;;10.39;76.13
21863;BME280;11096;51.338;12.524;2023-11-21T04:53:30;99595.75;;;10.51;75.61
21863;BME280;11096;51.338;12.524;2023-11-21T04:55:55;99597.03;;;10.57;75.01
21863;BME280;11096;51.338;12.524;2023-11-21T04:58:20;99597.88;;;10.46;75.12
21863;BME280;11096;51.338;12.524;2023-11-21T05:00:46;99596.06;;;10.24;75.22
21863;BME280;11096;51.338;12.524;2023-11-21T05:03:11;99596.22;;;10.34;75.69
21863;BME280;11096;51.338;12.524;2023-11-21T05:05:37;99605.22;;;10.41;76.32
21863;BME280;11096;51.338;12.524;2023-11-21T05:08:03;99602.47;;;10.43;75.91
21863;BME280;11096;51.338;12.524;2023-11-21T05:10:28;99598.06;;;10.21;75.81
21863;BME280;11096;51.338;12.524;2023-11-21T05:12:54;99607.91;;;10.73;75.28
21863;BME280;11096;51.338;12.524;2023-11-21T05:15:20;99611.69;;;10.36;75.89
21863;BME280;11096;51.338;12.524;2023-11-21T05:17:46;99613.88;;;10.18;75.13
21863;BME280;11096;51.338;12.524;2023-11-21T05:20:15;99617.59;;;10.71;75.16
21863;BME280;11096;51.338;12.524;2023-11-21T05:22:47;99615.81;;;10.49;75.48
21863;BME280;11096;51.338;12.524;2023-11-21T05:25:13;99620.78;;;10.64;75.24
21863;BME280;11096;51.338;12.524;2023-11-21T05:27:39;99621.00;;;10.38;75.75
21863;BME280;11096;51.338;12.524;2023-11-21T05:30:05;99627.03;;;10.50;76.36
21863;BME280;11096;51.338;12.524;2023-11-21T05:32:31;99625.75;;;10.67;75.70
21863;BME280;11096;51.338;12.524;2023-11-21T05:34:57;99618.53;;;10.59;75.23
21863;BME280;11096;51.338;12.524;2023-11-21T05:37:22;99623.28;;;10.54;75.75
21863;BME280;11096;51.338;12.524;2023-11-21T05:39:49;99632.81;;;10.42;76.07
21863;BME280;11096;51.338;12.524;2023-11-21T05:42:14;99631.47;;;10.25;76.09
21863;BME280;11096;51.338;12.524;2023-11-21T05:44:42;99637.88;;;10.32;77.88
21863;BME280;11096;51.338;12.524;2023-11-21T05:47:08;99644.41;;;10.49;77.27
21863;BME280;11096;51.338;12.524;2023-11-21T05:49:33;99637.88;;;10.32;78.07
21863;BME280;11096;51.338;12.524;2023-11-21T05:51:59;99647.94;;;10.37;78.27
21863;BME280;11096;51.338;12.524;2023-11-21T05:54:25;99643.16;;;10.20;78.32
21863;BME280;11096;51.338;12.524;2023-11-21T05:56:51;99642.63;;;10.03;78.98
21863;BME280;11096;51.338;12.524;2023-11-21T05:59:16;99647.97;;;10.02;79.47
21863;BME280;11096;51.338;12.524;2023-11-21T06:01:41;99646.41;;;10.35;79.31
21863;BME280;11096;51.338;12.524;2023-11-21T06:04:07;99640.38;;;10.34;78.83
21863;BME280;11096;51.338;12.524;2023-11-21T06:06:36;99646.53;;;10.44;78.10
21863;BME280;11096;51.338;12.524;2023-11-21T06:09:01;99642.88;;;10.47;78.06
21863;BME280;11096;51.338;12.524;2023-11-21T06:11:27;99644.16;;;10.30;78.07
21863;BME280;11096;51.338;12.524;2023-11-21T06:13:53;99650.78;;;10.34;78.17
21863;BME280;11096;51.338;12.524;2023-11-21T06:16:20;99642.41;;;10.42;77.90
21863;BME280;11096;51.338;12.524;2023-11-21T06:18:46;99650.47;;;10.15;78.31
21863;BME280;11096;51.338;12.524;2023-11-21T06:21:12;99656.63;;;10.25;79.36
21863;BME280;11096;51.338;12.524;2023-11-21T06:23:37;99659.50;;;10.33;79.13
21863;BME280;11096;51.338;12.524;2023-11-21T06:26:03;99656.06;;;10.32;79.41
21863;BME280;11096;51.338;12.524;2023-11-21T06:28:29;99660.69;;;10.29;79.65
21863;BME280;11096;51.338;12.524;2023-11-21T06:30:56;99666.81;;;10.50;80.22
21863;BME280;11096;51.338;12.524;2023-11-21T06:33:23;99674.88;;;10.47;79.99
21863;BME280;11096;51.338;12.524;2023-11-21T06:35:48;99681.78;;;10.24;80.71
21863;BME280;11096;51.338;12.524;2023-11-21T06:38:15;99689.25;;;10.29;82.44
21863;BME280;11096;51.338;12.524;2023-11-21T06:40:40;99685.28;;;10.23;88.98
21863;BME280;11096;51.338;12.524;2023-11-21T06:43:06;99700.97;;;10.10;93.62
21863;BME280;11096;51.338;12.524;2023-11-21T06:45:33;99690.03;;;9.94;96.91
21863;BME280;11096;51.338;12.524;2023-11-21T06:47:59;99698.94;;;10.03;100.00
21863;BME280;11096;51.338;12.524;2023-11-21T06:50:25;99698.94;;;9.79;100.00
21863;BME280;11096;51.338;12.524;2023-11-21T06:52:50;99705.19;;;10.00;100.00
21863;BME280;11096;51.338;12.524;2023-11-21T06:55:16;99699.03;;;10.01;100.00
21863;BME280;11096;51.338;12.524;2023-11-21T06:57:41;99701.69;;;10.13;100.00
21863;BME280;11096;51.338;12.524;2023-11-21T07:00:08;99704.28;;;10.13;100.00
21863;BME280;11096;51.338;12.524;2023-11-21T07:02:34;99707.69;;;10.02;100.00
21863;BME280;11096;51.338;12.524;2023-11-21T07:04:59;99709.50;;;10.24;100.00
21863;BME280;11096;51.338;12.524;2023-11-21T07:07:25;99705.66;;;10.29;100.00
21863;BME280;11096;51.338;12.524;2023-11-21T07:09:50;99715.22;;;10.29;100.00
21863;BME280;11096;51.338;12.524;2023-11-21T07:12:17;99707.06;;;9.98;100.00
21863;BME280;11096;51.338;12.524;2023-11-21T07:14:43;99719.75;;;10.14;100.00
21863;BME280;11096;51.338;12.524;2023-11-21T07:17:10;99720.44;;;10.16;100.00
21863;BME280;11096;51.338;12.524;2023-11-21T07:19:37;99732.34;;;10.43;100.00
21863;BME280;11096;51.338;12.524;2023-11-21T07:22:03;99737.09;;;10.49;100.00
21863;BME280;11096;51.338;12.524;2023-11-21T07:24:28;99736.63;;;10.55;100.00
21863;BME280;11096;51.338;12.524;2023-11-21T07:26:54;99738.31;;;10.56;100.00
21863;BME280;11096;51.338;12.524;2023-11-21T07:29:23;99737.13;;;10.83;100.00
21863;BME280;11096;51.338;12.524;2023-11-21T07:31:48;99740.53;;;10.25;100.00
21863;BME280;11096;51.338;12.524;2023-11-21T07:34:13;99742.84;;;10.30;100.00
21863;BME280;11096;51.338;12.524;2023-11-21T07:36:39;99741.69;;;10.34;100.00
21863;BME280;11096;51.338;12.524;2023-11-21T07:39:04;99747.41;;;10.26;100.00
21863;BME280;11096;51.338;12.524;2023-11-21T07:41:31;99738.75;;;10.26;100.00
21863;BME280;11096;51.338;12.524;2023-11-21T07:43:57;99741.81;;;10.55;100.00
21863;BME280;11096;51.338;12.524;2023-11-21T07:46:22;99742.31;;;10.49;100.00
21863;BME280;11096;51.338;12.524;2023-11-21T07:48:49;99744.19;;;10.23;100.00
21863;BME280;11096;51.338;12.524;2023-11-21T07:51:16;99749.47;;;10.34;100.00
21863;BME280;11096;51.338;12.524;2023-11-21T07:53:41;99752.78;;;10.36;100.00
21863;BME280;11096;51.338;12.524;2023-11-21T07:56:07;99767.09;;;10.53;100.00
21863;BME280;11096;51.338;12.524;2023-11-21T07:58:34;99764.03;;;10.59;100.00
21863;BME280;11096;51.338;12.524;2023-11-21T08:01:00;99770.44;;;10.66;100.00
21863;BME280;11096;51.338;12.524;2023-11-21T08:03:26;99774.53;;;10.46;100.00
21863;BME280;11096;51.338;12.524;2023-11-21T08:05:52;99780.97;;;10.29;100.00
21863;BME280;11096;51.338;12.524;2023-11-21T08:08:17;99778.84;;;10.10;100.00
21863;BME280;11096;51.338;12.524;2023-11-21T08:10:44;99793.78;;;10.20;100.00
21863;BME280;11096;51.338;12.524;2023-11-21T08:13:19;99802.50;;;10.43;100.00
21863;BME280;11096;51.338;12.524;2023-11-21T08:15:44;99800.13;;;10.16;100.00
21863;BME280;11096;51.338;12.524;2023-11-21T08:18:11;99805.13;;;9.82;100.00
21863;BME280;11096;51.338;12.524;2023-11-21T08:20:38;99807.88;;;10.04;100.00
21863;BME280;11096;51.338;12.524;2023-11-21T08:23:05;99814.97;;;10.14;100.00
21863;BME280;11096;51.338;12.524;2023-11-21T08:25:31;99812.97;;;10.30;100.00
21863;BME280;11096;51.338;12.524;2023-11-21T08:27:57;99818.25;;;10.28;100.00
21863;BME280;11096;51.338;12.524;2023-11-21T08:30:22;99819.75;;;10.20;100.00
21863;BME280;11096;51.338;12.524;2023-11-21T08:32:49;99818.97;;;10.30;100.00
21863;BME280;11096;51.338;12.524;2023-11-21T08:35:17;99818.44;;;10.25;100.00
21863;BME280;11096;51.338;12.524;2023-11-21T08:37:42;99819.75;;;10.20;100.00
21863;BME280;11096;51.338;12.524;2023-11-21T08:40:08;99831.63;;;10.35;100.00
21863;BME280;11096;51.338;12.524;2023-11-21T08:42:41;99826.19;;;10.38;100.00
21863;BME280;11096;51.338;12.524;2023-11-21T08:45:08;99833.09;;;10.50;100.00
21863;BME280;11096;51.338;12.524;2023-11-21T08:47:34;99835.94;;;10.47;100.00
21863;BME280;11096;51.338;12.524;2023-11-21T08:50:01;99836.25;;;10.19;100.00
21863;BME280;11096;51.338;12.524;2023-11-21T08:52:27;99840.25;;;10.12;100.00
21863;BME280;11096;51.338;12.524;2023-11-21T08:54:52;99846.81;;;10.28;100.00
21863;BME280;11096;51.338;12.524;2023-11-21T08:57:24;99855.47;;;10.29;100.00
21863;BME280;11096;51.338;12.524;2023-11-21T08:59:50;99856.25;;;10.05;100.00
21863;BME280;11096;51.338;12.524;2023-11-21T09:02:25;99861.78;;;10.25;100.00
21863;BME280;11096;51.338;12.524;2023-11-21T09:04:51;99863.97;;;11.02;100.00
21863;BME280;11096;51.338;12.524;2023-11-21T09:07:18;99861.41;;;10.66;100.00
21863;BME280;11096;51.338;12.524;2023-11-21T09:09:46;99867.50;;;10.54;100.00
21863;BME280;11096;51.338;12.524;2023-11-21T09:12:11;99871.28;;;10.13;100.00
21863;BME280;11096;51.338;12.524;2023-11-21T09:14:37;99879.16;;;10.48;100.00
21863;BME280;11096;51.338;12.524;2023-11-21T09:17:03;99882.03;;;10.32;100.00
21863;BME280;11096;51.338;12.524;2023-11-21T09:19:29;99881.72;;;10.37;100.00
21863;BME280;11096;51.338;12.524;2023-11-21T09:21:54;99882.19;;;10.42;100.00
21863;BME280;11096;51.338;12.524;2023-11-21T09:24:20;99884.22;;;10.39;100.00
21863;BME280;11096;51.338;12.524;2023-11-21T09:26:45;99892.19;;;10.36;100.00
21863;BME280;11096;51.338;12.524;2023-11-21T09:29:10;99900.63;;;10.39;100.00
21863;BME280;11096;51.338;12.524;2023-11-21T09:31:36;99902.97;;;10.42;100.00
21863;BME280;11096;51.338;12.524;2023-11-21T09:34:01;99900.44;;;10.29;100.00
21863;BME280;11096;51.338;12.524;2023-11-21T09:36:27;99900.00;;;10.23;100.00
21863;BME280;11096;51.338;12.524;2023-11-21T09:38:55;99911.91;;;10.38;100.00
21863;BME280;11096;51.338;12.524;2023-11-21T09:41:33;99906.69;;;10.51;100.00
21863;BME280;11096;51.338;12.524;2023-11-21T09:44:02;99909.31;;;10.38;100.00
21863;BME280;11096;51.338;12.524;2023-11-21T09:46:30;99904.69;;;10.18;100.00
21863;BME280;11096;51.338;12.524;2023-11-21T09:48:57;99912.56;;;10.42;100.00
21863;BME280;11096;51.338;12.524;2023-11-21T09:51:27;99920.03;;;10.34;100.00
21863;BME280;11096;51.338;12.524;2023-11-21T09:53:56;99921.06;;;10.44;100.00
21863;BME280;11096;51.338;12.524;2023-11-21T09:56:24;99919.63;;;10.27;100.00
21863;BME280;11096;51.338;12.524;2023-11-21T09:58:53;99927.72;;;10.35;100.00
21863;BME280;11096;51.338;12.524;2023-11-21T10:01:19;99926.56;;;10.02;100.00
21863;BME280;11096;51.338;12.524;2023-11-21T10:03:46;99929.34;;;10.12;100.00
21863;BME280;11096;51.338;12.524;2023-11-21T10:06:13;99935.41;;;10.00;100.00
21863;BME280;11096;51.338;12.524;2023-11-21T10:08:39;99938.22;;;9.84;100.00
21863;BME280;11096;51.338;12.524;2023-11-21T10:11:06;99945.84;;;10.24;100.00
21863;BME280;11096;51.338;12.524;2023-11-21T10:13:34;99935.06;;;10.04;100.00
21863;BME280;11096;51.338;12.524;2023-11-21T10:16:00;99937.81;;;9.90;100.00
21863;BME280;11096;51.338;12.524;2023-11-21T10:18:25;99943.50;;;9.95;100.00
21863;BME280;11096;51.338;12.524;2023-11-21T10:20:52;99942.56;;;9.96;100.00
21863;BME280;11096;51.338;12.524;2023-11-21T10:23:21;99946.69;;;10.12;100.00
21863;BME280;11096;51.338;12.524;2023-11-21T10:25:47;99943.00;;;9.90;100.00
21863;BME280;11096;51.338;12.524;2023-11-21T10:28:14;99946.50;;;9.89;100.00
21863;BME280;11096;51.338;12.524;2023-11-21T10:30:40;99951.91;;;9.86;100.00
21863;BME280;11096;51.338;12.524;2023-11-21T10:33:07;99949.41;;;9.84;100.00
21863;BME280;11096;51.338;12.524;2023-11-21T10:35:46;99953.19;;;9.80;100.00
21863;BME280;11096;51.338;12.524;2023-11-21T10:38:14;99953.66;;;10.48;100.00
21863;BME280;11096;51.338;12.524;2023-11-21T10:40:43;99959.31;;;10.66;100.00
21863;BME280;11096;51.338;12.524;2023-11-21T10:43:12;99956.16;;;10.49;100.00
21863;BME280;11096;51.338;12.524;2023-11-21T10:45:38;99956.72;;;10.66;100.00
21863;BME280;11096;51.338;12.524;2023-11-21T10:48:08;99956.91;;;10.76;100.00
21863;BME280;11096;51.338;12.524;2023-11-21T10:50:36;99955.38;;;10.23;99.53
21863;BME280;11096;51.338;12.524;2023-11-21T10:53:05;99964.56;;;10.29;99.66
21863;BME280;11096;51.338;12.524;2023-11-21T10:55:32;99957.25;;;10.21;98.76
21863;BME280;11096;51.338;12.524;2023-11-21T10:58:04;99951.94;;;10.36;96.87
21863;BME280;11096;51.338;12.524;2023-11-21T11:00:32;99956.00;;;10.27;97.29
21863;BME280;11096;51.338;12.524;2023-11-21T11:02:58;99961.84;;;10.55;99.83
21863;BME280;11096;51.338;12.524;2023-11-21T11:05:26;99970.41;;;10.68;100.00
21863;BME280;11096;51.338;12.524;2023-11-21T11:08:00;99960.69;;;10.22;95.84
21863;BME280;11096;51.338;12.524;2023-11-21T11:10:28;99975.38;;;9.33;100.00
21863;BME280;11096;51.338;12.524;2023-11-21T11:12:57;99972.03;;;9.18;100.00
21863;BME280;11096;51.338;12.524;2023-11-21T11:15:24;99974.06;;;9.00;100.00
21863;BME280;11096;51.338;12.524;2023-11-21T11:17:49;99981.59;;;9.31;100.00
21863;BME280;11096;51.338;12.524;2023-11-21T11:20:16;99988.06;;;9.76;100.00
21863;BME280;11096;51.338;12.524;2023-11-21T11:22:44;99984.88;;;9.20;100.00
21863;BME280;11096;51.338;12.524;2023-11-21T11:28:14;99991.97;;;9.31;100.00
21863;BME280;11096;51.338;12.524;2023-11-21T11:33:43;99998.34;;;9.65;100.00
21863;BME280;11096;51.338;12.524;2023-11-21T11:36:18;100001.09;;;9.23;100.00
21863;BME280;11096;51.338;12.524;2023-11-21T11:38:47;100008.38;;;9.44;100.00
21863;BME280;11096;51.338;12.524;2023-11-21T11:41:27;100011.50;;;9.49;100.00
21863;BME280;11096;51.338;12.524;2023-11-21T11:43:54;100019.31;;;9.75;100.00
21863;BME280;11096;51.338;12.524;2023-11-21T11:46:20;100014.00;;;9.63;100.00
21863;BME280;11096;51.338;12.524;2023-11-21T11:48:48;100013.38;;;9.98;100.00
21863;BME280;11096;51.338;12.524;2023-11-21T11:51:14;100011.41;;;9.76;100.00
21863;BME280;11096;51.338;12.524;2023-11-21T11:53:43;100015.03;;;9.74;100.00
21863;BME280;11096;51.338;12.524;2023-11-21T11:56:30;100016.16;;;10.08;100.00
21863;BME280;11096;51.338;12.524;2023-11-21T11:59:00;100018.56;;;9.98;100.00
21863;BME280;11096;51.338;12.524;2023-11-21T12:01:28;100019.91;;;9.91;100.00
21863;BME280;11096;51.338;12.524;2023-11-21T12:07:05;100032.72;;;9.29;100.00
21863;BME280;11096;51.338;12.524;2023-11-21T12:09:31;100031.94;;;9.01;100.00
21863;BME280;11096;51.338;12.524;2023-11-21T12:11:57;100037.72;;;9.05;100.00
21863;BME280;11096;51.338;12.524;2023-11-21T12:14:23;100039.09;;;8.83;100.00
21863;BME280;11096;51.338;12.524;2023-11-21T12:16:48;100046.03;;;9.10;100.00
21863;BME280;11096;51.338;12.524;2023-11-21T12:19:14;100049.75;;;9.06;100.00
21863;BME280;11096;51.338;12.524;2023-11-21T12:21:40;100059.69;;;8.99;100.00
21863;BME280;11096;51.338;12.524;2023-11-21T12:24:14;100061.47;;;8.57;100.00
21863;BME280;11096;51.338;12.524;2023-11-21T12:26:40;100073.66;;;8.69;100.00
21863;BME280;11096;51.338;12.524;2023-11-21T12:29:05;100083.72;;;8.31;100.00
21863;BME280;11096;51.338;12.524;2023-11-21T12:31:33;100088.41;;;8.54;100.00
21863;BME280;11096;51.338;12.524;2023-11-21T12:33:59;100086.78;;;8.23;100.00
21863;BME280;11096;51.338;12.524;2023-11-21T12:36:25;100087.28;;;8.44;100.00
21863;BME280;11096;51.338;12.524;2023-11-21T12:38:51;100097.00;;;8.41;100.00
21863;BME280;11096;51.338;12.524;2023-11-21T12:41:16;100089.25;;;7.96;100.00
21863;BME280;11096;51.338;12.524;2023-11-21T12:43:46;100097.78;;;8.12;100.00
21863;BME280;11096;51.338;12.524;2023-11-21T12:46:13;100099.25;;;8.02;100.00
21863;BME280;11096;51.338;12.524;2023-11-21T12:48:44;100109.88;;;8.12;100.00
21863;BME280;11096;51.338;12.524;2023-11-21T12:51:11;100099.34;;;8.01;100.00
21863;BME280;11096;51.338;12.524;2023-11-21T12:53:38;100108.66;;;7.89;100.00